sensor_id;sensor_type;location;lat;lon;timestamp;P1;durP1;ratioP1;P2;durP2;ratioP2
50585;SDS011;36542;51.700;8.846;2023-08-30T00:00:30;15.40;;;11.53;;
50585;SDS011;36542;51.700;8.846;2023-08-30T00:02:56;17.33;;;12.70;;
50585;SDS011;36542;51.700;8.846;2023-08-30T00:05:22;16.73;;;12.10;;
50585;SDS011;36542;51.700;8.846;2023-08-30T00:07:49;15.63;;;13.37;;
50585;SDS011;36542;51.700;8.846;2023-08-30T00:10:14;15.90;;;13.20;;
50585;SDS011;36542;51.700;8.846;2023-08-30T00:12:41;15.53;;;13.47;;
50585;SDS011;36542;51.700;8.846;2023-08-30T00:15:07;15.67;;;13.97;;
50585;SDS011;36542;51.700;8.846;2023-08-30T00:17:33;17.80;;;13.90;;
50585;SDS011;36542;51.700;8.846;2023-08-30T00:19:58;19.27;;;14.37;;
50585;SDS011;36542;51.700;8.846;2023-08-30T00:22:24;17.90;;;14.07;;
50585;SDS011;36542;51.700;8.846;2023-08-30T00:24:52;18.23;;;14.20;;
50585;SDS011;36542;51.700;8.846;2023-08-30T00:27:18;18.03;;;14.37;;
50585;SDS011;36542;51.700;8.846;2023-08-30T00:29:45;17.07;;;14.83;;
50585;SDS011;36542;51.700;8.846;2023-08-30T00:32:11;17.17;;;14.20;;
50585;SDS011;36542;51.700;8.846;2023-08-30T00:34:36;14.83;;;13.23;;
50585;SDS011;36542;51.700;8.846;2023-08-30T00:37:02;17.13;;;12.70;;
50585;SDS011;36542;51.700;8.846;2023-08-30T00:39:28;17.90;;;12.77;;
50585;SDS011;36542;51.700;8.846;2023-08-30T00:41:53;15.50;;;12.03;;
50585;SDS011;36542;51.700;8.846;2023-08-30T00:44:19;13.63;;;11.33;;
50585;SDS011;36542;51.700;8.846;2023-08-30T00:46:44;13.37;;;11.87;;
50585;SDS011;36542;51.700;8.846;2023-08-30T00:49:10;14.83;;;12.77;;
50585;SDS011;36542;51.700;8.846;2023-08-30T00:51:35;16.57;;;12.30;;
50585;SDS011;36542;51.700;8.846;2023-08-30T00:54:01;13.90;;;12.17;;
50585;SDS011;36542;51.700;8.846;2023-08-30T00:56:27;14.67;;;12.87;;
50585;SDS011;36542;51.700;8.846;2023-08-30T00:58:53;13.03;;;11.43;;
50585;SDS011;36542;51.700;8.846;2023-08-30T01:01:20;13.97;;;12.47;;
50585;SDS011;36542;51.700;8.846;2023-08-30T01:03:45;15.00;;;12.80;;
50585;SDS011;36542;51.700;8.846;2023-08-30T01:06:11;15.87;;;12.90;;
50585;SDS011;36542;51.700;8.846;2023-08-30T01:08:38;14.47;;;12.20;;
50585;SDS011;36542;51.700;8.846;2023-08-30T01:11:17;13.17;;;11.77;;
50585;SDS011;36542;51.700;8.846;2023-08-30T01:14:04;11.13;;;9.57;;
50585;SDS011;36542;51.700;8.846;2023-08-30T01:16:39;12.27;;;10.63;;
50585;SDS011;36542;51.700;8.846;2023-08-30T01:19:34;11.77;;;10.43;;
50585;SDS011;36542;51.700;8.846;2023-08-30T01:25:12;12.47;;;10.50;;
50585;SDS011;36542;51.700;8.846;2023-08-30T01:27:44;12.13;;;10.83;;
50585;SDS011;36542;51.700;8.846;2023-08-30T01:30:12;12.53;;;11.13;;
50585;SDS011;36542;51.700;8.846;2023-08-30T01:32:40;15.20;;;11.50;;
50585;SDS011;36542;51.700;8.846;2023-08-30T01:35:06;14.13;;;11.23;;
50585;SDS011;36542;51.700;8.846;2023-08-30T01:37:33;13.23;;;11.10;;
50585;SDS011;36542;51.700;8.846;2023-08-30T01:39:59;12.80;;;10.23;;
50585;SDS011;36542;51.700;8.846;2023-08-30T01:42:28;12.07;;;10.07;;
50585;SDS011;36542;51.700;8.846;2023-08-30T01:44:55;14.53;;;10.70;;
50585;SDS011;36542;51.700;8.846;2023-08-30T01:47:23;12.00;;;10.00;;
50585;SDS011;36542;51.700;8.846;2023-08-30T01:49:51;14.23;;;10.97;;
50585;SDS011;36542;51.700;8.846;2023-08-30T01:52:18;11.20;;;10.00;;
50585;SDS011;36542;51.700;8.846;2023-08-30T01:54:45;12.77;;;10.67;;
50585;SDS011;36542;51.700;8.846;2023-08-30T01:57:11;12.63;;;10.43;;
50585;SDS011;36542;51.700;8.846;2023-08-30T01:59:37;12.37;;;10.93;;
50585;SDS011;36542;51.700;8.846;2023-08-30T02:02:02;14.13;;;10.63;;
50585;SDS011;36542;51.700;8.846;2023-08-30T02:04:29;14.27;;;11.17;;
50585;SDS011;36542;51.700;8.846;2023-08-30T02:07:02;12.13;;;10.33;;
50585;SDS011;36542;51.700;8.846;2023-08-30T02:12:04;13.33;;;10.70;;
50585;SDS011;36542;51.700;8.846;2023-08-30T02:14:35;14.13;;;10.23;;
50585;SDS011;36542;51.700;8.846;2023-08-30T02:17:03;13.07;;;10.77;;
50585;SDS011;36542;51.700;8.846;2023-08-30T02:19:29;12.87;;;10.53;;
50585;SDS011;36542;51.700;8.846;2023-08-30T02:21:55;13.23;;;10.93;;
50585;SDS011;36542;51.700;8.846;2023-08-30T02:24:20;12.00;;;10.53;;
50585;SDS011;36542;51.700;8.846;2023-08-30T02:26:46;10.53;;;9.43;;
50585;SDS011;36542;51.700;8.846;2023-08-30T02:29:12;14.13;;;10.43;;
50585;SDS011;36542;51.700;8.846;2023-08-30T02:31:38;11.07;;;9.97;;
50585;SDS011;36542;51.700;8.846;2023-08-30T02:34:03;14.93;;;10.80;;
50585;SDS011;36542;51.700;8.846;2023-08-30T02:36:29;13.27;;;11.57;;
50585;SDS011;36542;51.700;8.846;2023-08-30T02:38:54;18.07;;;13.73;;
50585;SDS011;36542;51.700;8.846;2023-08-30T02:41:20;14.53;;;13.03;;
50585;SDS011;36542;51.700;8.846;2023-08-30T02:43:45;15.77;;;13.43;;
50585;SDS011;36542;51.700;8.846;2023-08-30T02:46:11;17.87;;;14.27;;
50585;SDS011;36542;51.700;8.846;2023-08-30T02:48:36;20.17;;;16.07;;
50585;SDS011;36542;51.700;8.846;2023-08-30T02:51:02;18.00;;;15.10;;
50585;SDS011;36542;51.700;8.846;2023-08-30T02:53:27;19.97;;;15.50;;
50585;SDS011;36542;51.700;8.846;2023-08-30T02:55:53;19.50;;;15.43;;
50585;SDS011;36542;51.700;8.846;2023-08-30T02:58:20;20.80;;;17.47;;
50585;SDS011;36542;51.700;8.846;2023-08-30T03:00:46;20.23;;;17.30;;
50585;SDS011;36542;51.700;8.846;2023-08-30T03:03:12;20.57;;;15.90;;
50585;SDS011;36542;51.700;8.846;2023-08-30T03:05:37;18.47;;;16.40;;
50585;SDS011;36542;51.700;8.846;2023-08-30T03:08:03;20.87;;;17.47;;
50585;SDS011;36542;51.700;8.846;2023-08-30T03:10:28;20.40;;;16.87;;
50585;SDS011;36542;51.700;8.846;2023-08-30T03:12:54;17.90;;;15.60;;
50585;SDS011;36542;51.700;8.846;2023-08-30T03:15:19;19.97;;;15.87;;
50585;SDS011;36542;51.700;8.846;2023-08-30T03:17:45;21.80;;;16.17;;
50585;SDS011;36542;51.700;8.846;2023-08-30T03:20:10;19.90;;;15.70;;
50585;SDS011;36542;51.700;8.846;2023-08-30T03:22:36;17.27;;;13.97;;
50585;SDS011;36542;51.700;8.846;2023-08-30T03:25:02;16.87;;;14.03;;
50585;SDS011;36542;51.700;8.846;2023-08-30T03:27:28;15.87;;;12.93;;
50585;SDS011;36542;51.700;8.846;2023-08-30T03:29:54;17.73;;;13.80;;
50585;SDS011;36542;51.700;8.846;2023-08-30T03:32:20;23.87;;;17.87;;
50585;SDS011;36542;51.700;8.846;2023-08-30T03:34:47;17.33;;;14.63;;
50585;SDS011;36542;51.700;8.846;2023-08-30T03:37:13;18.67;;;15.97;;
50585;SDS011;36542;51.700;8.846;2023-08-30T03:39:39;20.57;;;14.77;;
50585;SDS011;36542;51.700;8.846;2023-08-30T03:42:05;18.23;;;14.37;;
50585;SDS011;36542;51.700;8.846;2023-08-30T03:44:31;15.97;;;13.63;;
50585;SDS011;36542;51.700;8.846;2023-08-30T03:46:57;19.50;;;13.80;;
50585;SDS011;36542;51.700;8.846;2023-08-30T03:49:22;18.33;;;15.03;;
50585;SDS011;36542;51.700;8.846;2023-08-30T03:51:48;18.87;;;15.33;;
50585;SDS011;36542;51.700;8.846;2023-08-30T03:54:13;20.80;;;17.23;;
50585;SDS011;36542;51.700;8.846;2023-08-30T03:56:41;21.57;;;17.77;;
50585;SDS011;36542;51.700;8.846;2023-08-30T03:59:07;22.07;;;17.53;;
50585;SDS011;36542;51.700;8.846;2023-08-30T04:01:33;23.00;;;17.87;;
50585;SDS011;36542;51.700;8.846;2023-08-30T04:03:59;21.80;;;17.33;;
50585;SDS011;36542;51.700;8.846;2023-08-30T04:06:24;20.17;;;16.90;;
50585;SDS011;36542;51.700;8.846;2023-08-30T04:08:50;23.53;;;19.07;;
50585;SDS011;36542;51.700;8.846;2023-08-30T04:11:15;22.63;;;18.67;;
50585;SDS011;36542;51.700;8.846;2023-08-30T04:13:41;21.60;;;16.07;;
50585;SDS011;36542;51.700;8.846;2023-08-30T04:16:06;18.93;;;15.53;;
50585;SDS011;36542;51.700;8.846;2023-08-30T04:18:32;20.57;;;15.73;;
50585;SDS011;36542;51.700;8.846;2023-08-30T04:20:58;19.07;;;15.40;;
50585;SDS011;36542;51.700;8.846;2023-08-30T04:23:24;25.03;;;16.80;;
50585;SDS011;36542;51.700;8.846;2023-08-30T04:25:49;18.90;;;16.90;;
50585;SDS011;36542;51.700;8.846;2023-08-30T04:28:15;21.93;;;18.40;;
50585;SDS011;36542;51.700;8.846;2023-08-30T04:30:40;26.47;;;18.80;;
50585;SDS011;36542;51.700;8.846;2023-08-30T04:33:06;23.23;;;17.73;;
50585;SDS011;36542;51.700;8.846;2023-08-30T04:35:31;18.70;;;15.90;;
50585;SDS011;36542;51.700;8.846;2023-08-30T04:37:58;18.87;;;16.00;;
50585;SDS011;36542;51.700;8.846;2023-08-30T04:40:24;19.27;;;17.03;;
50585;SDS011;36542;51.700;8.846;2023-08-30T04:42:50;19.80;;;16.70;;
50585;SDS011;36542;51.700;8.846;2023-08-30T04:45:15;21.17;;;16.47;;
50585;SDS011;36542;51.700;8.846;2023-08-30T04:47:41;23.60;;;17.33;;
50585;SDS011;36542;51.700;8.846;2023-08-30T04:50:08;21.13;;;17.57;;
50585;SDS011;36542;51.700;8.846;2023-08-30T04:52:34;22.43;;;17.07;;
50585;SDS011;36542;51.700;8.846;2023-08-30T04:54:59;21.53;;;18.20;;
50585;SDS011;36542;51.700;8.846;2023-08-30T04:57:25;22.43;;;17.40;;
50585;SDS011;36542;51.700;8.846;2023-08-30T04:59:50;20.87;;;17.27;;
50585;SDS011;36542;51.700;8.846;2023-08-30T05:02:16;22.63;;;18.37;;
50585;SDS011;36542;51.700;8.846;2023-08-30T05:04:41;23.30;;;18.17;;
50585;SDS011;36542;51.700;8.846;2023-08-30T05:07:07;24.60;;;18.73;;
50585;SDS011;36542;51.700;8.846;2023-08-30T05:09:33;22.97;;;19.50;;
50585;SDS011;36542;51.700;8.846;2023-08-30T05:11:59;28.60;;;20.17;;
50585;SDS011;36542;51.700;8.846;2023-08-30T05:14:25;24.60;;;20.60;;
50585;SDS011;36542;51.700;8.846;2023-08-30T05:16:51;28.60;;;21.80;;
50585;SDS011;36542;51.700;8.846;2023-08-30T05:19:16;26.30;;;20.77;;
50585;SDS011;36542;51.700;8.846;2023-08-30T05:21:42;27.37;;;21.10;;
50585;SDS011;36542;51.700;8.846;2023-08-30T05:24:08;25.63;;;20.23;;
50585;SDS011;36542;51.700;8.846;2023-08-30T05:26:34;25.63;;;19.70;;
50585;SDS011;36542;51.700;8.846;2023-08-30T05:28:59;28.27;;;20.87;;
50585;SDS011;36542;51.700;8.846;2023-08-30T05:31:25;22.20;;;18.93;;
50585;SDS011;36542;51.700;8.846;2023-08-30T05:33:50;23.53;;;19.53;;
50585;SDS011;36542;51.700;8.846;2023-08-30T05:36:16;22.37;;;18.43;;
50585;SDS011;36542;51.700;8.846;2023-08-30T05:38:42;22.20;;;18.70;;
50585;SDS011;36542;51.700;8.846;2023-08-30T05:41:08;17.60;;;14.83;;
50585;SDS011;36542;51.700;8.846;2023-08-30T05:43:33;20.53;;;16.20;;
50585;SDS011;36542;51.700;8.846;2023-08-30T05:45:59;18.67;;;15.10;;
50585;SDS011;36542;51.700;8.846;2023-08-30T05:48:27;13.90;;;12.40;;
50585;SDS011;36542;51.700;8.846;2023-08-30T05:50:53;13.03;;;10.90;;
50585;SDS011;36542;51.700;8.846;2023-08-30T05:53:18;13.10;;;11.70;;
50585;SDS011;36542;51.700;8.846;2023-08-30T05:55:44;13.10;;;11.43;;
50585;SDS011;36542;51.700;8.846;2023-08-30T05:58:09;15.80;;;13.57;;
50585;SDS011;36542;51.700;8.846;2023-08-30T06:00:35;16.00;;;13.77;;
50585;SDS011;36542;51.700;8.846;2023-08-30T06:03:00;16.63;;;14.80;;
50585;SDS011;36542;51.700;8.846;2023-08-30T06:05:27;17.50;;;14.40;;
50585;SDS011;36542;51.700;8.846;2023-08-30T06:07:53;15.43;;;12.20;;
50585;SDS011;36542;51.700;8.846;2023-08-30T06:10:19;11.83;;;10.63;;
50585;SDS011;36542;51.700;8.846;2023-08-30T06:12:45;13.60;;;12.20;;
50585;SDS011;36542;51.700;8.846;2023-08-30T06:15:10;14.10;;;11.27;;
50585;SDS011;36542;51.700;8.846;2023-08-30T06:17:36;12.80;;;11.13;;
50585;SDS011;36542;51.700;8.846;2023-08-30T06:20:01;15.10;;;11.33;;
50585;SDS011;36542;51.700;8.846;2023-08-30T06:22:27;13.57;;;11.97;;
50585;SDS011;36542;51.700;8.846;2023-08-30T06:24:53;15.07;;;11.77;;
50585;SDS011;36542;51.700;8.846;2023-08-30T06:27:19;13.03;;;11.70;;
50585;SDS011;36542;51.700;8.846;2023-08-30T06:29:45;14.40;;;12.50;;
50585;SDS011;36542;51.700;8.846;2023-08-30T06:32:10;14.27;;;12.63;;
50585;SDS011;36542;51.700;8.846;2023-08-30T06:34:36;17.43;;;13.33;;
50585;SDS011;36542;51.700;8.846;2023-08-30T06:37:01;12.87;;;11.00;;
50585;SDS011;36542;51.700;8.846;2023-08-30T06:39:32;13.37;;;11.50;;
50585;SDS011;36542;51.700;8.846;2023-08-30T06:41:59;13.97;;;12.20;;
50585;SDS011;36542;51.700;8.846;2023-08-30T06:44:25;12.17;;;10.83;;
50585;SDS011;36542;51.700;8.846;2023-08-30T06:46:50;14.53;;;10.60;;
50585;SDS011;36542;51.700;8.846;2023-08-30T06:49:17;12.53;;;11.23;;
50585;SDS011;36542;51.700;8.846;2023-08-30T06:51:42;11.90;;;10.70;;
50585;SDS011;36542;51.700;8.846;2023-08-30T06:54:08;13.90;;;11.80;;
50585;SDS011;36542;51.700;8.846;2023-08-30T06:56:33;15.87;;;11.43;;
50585;SDS011;36542;51.700;8.846;2023-08-30T06:58:59;13.33;;;12.03;;
50585;SDS011;36542;51.700;8.846;2023-08-30T07:01:24;14.52;;;13.13;;
50585;SDS011;36542;51.700;8.846;2023-08-30T07:03:50;13.82;;;11.57;;
50585;SDS011;36542;51.700;8.846;2023-08-30T07:06:15;16.60;;;13.10;;
50585;SDS011;36542;51.700;8.846;2023-08-30T07:08:41;13.77;;;11.48;;
50585;SDS011;36542;51.700;8.846;2023-08-30T07:11:06;15.60;;;13.05;;
50585;SDS011;36542;51.700;8.846;2023-08-30T07:13:32;13.73;;;12.17;;
50585;SDS011;36542;51.700;8.846;2023-08-30T07:15:57;13.83;;;12.13;;
50585;SDS011;36542;51.700;8.846;2023-08-30T07:18:23;13.17;;;11.73;;
50585;SDS011;36542;51.700;8.846;2023-08-30T07:20:48;14.20;;;12.70;;
50585;SDS011;36542;51.700;8.846;2023-08-30T07:23:14;15.70;;;13.37;;
50585;SDS011;36542;51.700;8.846;2023-08-30T07:25:39;17.13;;;13.90;;
50585;SDS011;36542;51.700;8.846;2023-08-30T07:28:05;15.13;;;13.53;;
50585;SDS011;36542;51.700;8.846;2023-08-30T07:30:31;17.20;;;15.43;;
50585;SDS011;36542;51.700;8.846;2023-08-30T07:32:57;17.40;;;14.80;;
50585;SDS011;36542;51.700;8.846;2023-08-30T07:35:23;16.33;;;14.33;;
50585;SDS011;36542;51.700;8.846;2023-08-30T07:37:48;16.23;;;13.97;;
50585;SDS011;36542;51.700;8.846;2023-08-30T07:40:14;17.30;;;15.50;;
50585;SDS011;36542;51.700;8.846;2023-08-30T07:42:39;15.43;;;13.73;;
50585;SDS011;36542;51.700;8.846;2023-08-30T07:45:05;18.08;;;15.43;;
50585;SDS011;36542;51.700;8.846;2023-08-30T07:47:31;20.83;;;17.00;;
50585;SDS011;36542;51.700;8.846;2023-08-30T07:49:57;18.45;;;15.93;;
50585;SDS011;36542;51.700;8.846;2023-08-30T07:52:22;16.40;;;14.70;;
50585;SDS011;36542;51.700;8.846;2023-08-30T07:54:48;17.00;;;15.23;;
50585;SDS011;36542;51.700;8.846;2023-08-30T07:57:13;16.48;;;14.70;;
50585;SDS011;36542;51.700;8.846;2023-08-30T07:59:39;18.13;;;15.23;;
50585;SDS011;36542;51.700;8.846;2023-08-30T08:02:05;21.95;;;18.67;;
50585;SDS011;36542;51.700;8.846;2023-08-30T08:04:32;20.38;;;18.15;;
50585;SDS011;36542;51.700;8.846;2023-08-30T08:06:59;23.48;;;18.08;;
50585;SDS011;36542;51.700;8.846;2023-08-30T08:09:24;21.88;;;18.27;;
50585;SDS011;36542;51.700;8.846;2023-08-30T08:11:50;19.65;;;17.58;;
50585;SDS011;36542;51.700;8.846;2023-08-30T08:14:16;20.80;;;17.95;;
50585;SDS011;36542;51.700;8.846;2023-08-30T08:16:41;20.67;;;18.55;;
50585;SDS011;36542;51.700;8.846;2023-08-30T08:19:07;20.77;;;18.58;;
50585;SDS011;36542;51.700;8.846;2023-08-30T08:21:33;22.30;;;19.35;;
50585;SDS011;36542;51.700;8.846;2023-08-30T08:23:59;19.85;;;17.88;;
50585;SDS011;36542;51.700;8.846;2023-08-30T08:26:25;18.60;;;16.70;;
50585;SDS011;36542;51.700;8.846;2023-08-30T08:28:51;19.70;;;17.70;;
50585;SDS011;36542;51.700;8.846;2023-08-30T08:31:16;20.58;;;18.35;;
50585;SDS011;36542;51.700;8.846;2023-08-30T08:33:43;17.70;;;15.82;;
50585;SDS011;36542;51.700;8.846;2023-08-30T08:36:08;17.73;;;16.02;;
50585;SDS011;36542;51.700;8.846;2023-08-30T08:38:34;19.45;;;17.45;;
50585;SDS011;36542;51.700;8.846;2023-08-30T08:41:04;20.30;;;17.80;;
50585;SDS011;36542;51.700;8.846;2023-08-30T08:43:32;18.83;;;16.70;;
50585;SDS011;36542;51.700;8.846;2023-08-30T08:46:01;17.67;;;15.77;;
50585;SDS011;36542;51.700;8.846;2023-08-30T08:48:28;16.10;;;14.50;;
50585;SDS011;36542;51.700;8.846;2023-08-30T08:50:57;15.32;;;13.82;;
50585;SDS011;36542;51.700;8.846;2023-08-30T08:53:23;15.15;;;13.48;;
50585;SDS011;36542;51.700;8.846;2023-08-30T08:55:49;12.98;;;11.68;;
50585;SDS011;36542;51.700;8.846;2023-08-30T08:58:16;13.98;;;12.60;;
50585;SDS011;36542;51.700;8.846;2023-08-30T09:00:42;11.20;;;10.15;;
50585;SDS011;36542;51.700;8.846;2023-08-30T09:03:08;9.90;;;8.95;;
50585;SDS011;36542;51.700;8.846;2023-08-30T09:05:34;10.18;;;9.10;;
50585;SDS011;36542;51.700;8.846;2023-08-30T09:08:04;11.98;;;9.70;;
50585;SDS011;36542;51.700;8.846;2023-08-30T09:10:31;11.55;;;10.35;;
50585;SDS011;36542;51.700;8.846;2023-08-30T09:13:00;11.30;;;9.88;;
50585;SDS011;36542;51.700;8.846;2023-08-30T09:15:32;12.88;;;9.88;;
50585;SDS011;36542;51.700;8.846;2023-08-30T09:17:58;10.02;;;8.93;;
50585;SDS011;36542;51.700;8.846;2023-08-30T09:20:24;14.13;;;10.02;;
50585;SDS011;36542;51.700;8.846;2023-08-30T09:22:50;12.07;;;10.30;;
50585;SDS011;36542;51.700;8.846;2023-08-30T09:25:25;10.85;;;9.60;;
50585;SDS011;36542;51.700;8.846;2023-08-30T09:28:01;9.93;;;8.68;;
50585;SDS011;36542;51.700;8.846;2023-08-30T09:30:28;12.05;;;10.45;;
50585;SDS011;36542;51.700;8.846;2023-08-30T09:33:00;10.55;;;9.38;;
50585;SDS011;36542;51.700;8.846;2023-08-30T09:35:26;13.38;;;9.93;;
50585;SDS011;36542;51.700;8.846;2023-08-30T09:37:51;10.85;;;9.65;;
50585;SDS011;36542;51.700;8.846;2023-08-30T09:40:20;11.45;;;10.32;;
50585;SDS011;36542;51.700;8.846;2023-08-30T09:42:46;11.18;;;9.98;;
50585;SDS011;36542;51.700;8.846;2023-08-30T09:45:18;10.82;;;9.82;;
50585;SDS011;36542;51.700;8.846;2023-08-30T09:47:47;11.55;;;10.45;;
50585;SDS011;36542;51.700;8.846;2023-08-30T09:50:15;12.32;;;10.68;;
50585;SDS011;36542;51.700;8.846;2023-08-30T09:52:43;14.35;;;9.85;;
50585;SDS011;36542;51.700;8.846;2023-08-30T09:55:10;13.23;;;11.80;;
50585;SDS011;36542;51.700;8.846;2023-08-30T09:57:35;13.00;;;11.80;;
50585;SDS011;36542;51.700;8.846;2023-08-30T10:00:02;12.27;;;11.15;;
50585;SDS011;36542;51.700;8.846;2023-08-30T10:02:29;11.98;;;10.68;;
50585;SDS011;36542;51.700;8.846;2023-08-30T10:04:56;11.88;;;10.70;;
50585;SDS011;36542;51.700;8.846;2023-08-30T10:07:22;9.20;;;8.23;;
50585;SDS011;36542;51.700;8.846;2023-08-30T10:09:49;10.23;;;7.80;;
50585;SDS011;36542;51.700;8.846;2023-08-30T10:12:16;9.48;;;6.13;;
50585;SDS011;36542;51.700;8.846;2023-08-30T10:14:44;7.63;;;5.45;;
50585;SDS011;36542;51.700;8.846;2023-08-30T10:17:10;7.95;;;6.50;;
50585;SDS011;36542;51.700;8.846;2023-08-30T10:19:37;7.15;;;6.47;;
50585;SDS011;36542;51.700;8.846;2023-08-30T10:22:04;5.82;;;5.15;;
50585;SDS011;36542;51.700;8.846;2023-08-30T10:24:38;5.05;;;4.10;;
50585;SDS011;36542;51.700;8.846;2023-08-30T10:27:06;7.80;;;3.53;;
50585;SDS011;36542;51.700;8.846;2023-08-30T10:29:34;7.50;;;5.00;;
50585;SDS011;36542;51.700;8.846;2023-08-30T10:32:02;5.47;;;4.60;;
50585;SDS011;36542;51.700;8.846;2023-08-30T10:34:31;4.93;;;4.03;;
50585;SDS011;36542;51.700;8.846;2023-08-30T10:36:59;5.97;;;4.75;;
50585;SDS011;36542;51.700;8.846;2023-08-30T10:39:35;4.30;;;3.90;;
50585;SDS011;36542;51.700;8.846;2023-08-30T10:42:07;4.80;;;4.00;;
50585;SDS011;36542;51.700;8.846;2023-08-30T10:44:33;4.57;;;3.83;;
50585;SDS011;36542;51.700;8.846;2023-08-30T10:46:58;5.43;;;4.32;;
50585;SDS011;36542;51.700;8.846;2023-08-30T10:49:29;4.20;;;3.80;;
50585;SDS011;36542;51.700;8.846;2023-08-30T10:51:57;4.90;;;4.40;;
50585;SDS011;36542;51.700;8.846;2023-08-30T10:54:26;5.60;;;4.22;;
50585;SDS011;36542;51.700;8.846;2023-08-30T10:57:02;4.50;;;3.78;;
50585;SDS011;36542;51.700;8.846;2023-08-30T10:59:28;3.97;;;3.67;;
50585;SDS011;36542;51.700;8.846;2023-08-30T11:01:54;4.32;;;3.83;;
50585;SDS011;36542;51.700;8.846;2023-08-30T11:04:21;5.93;;;4.53;;
50585;SDS011;36542;51.700;8.846;2023-08-30T11:06:48;3.97;;;3.58;;
50585;SDS011;36542;51.700;8.846;2023-08-30T11:09:15;4.35;;;3.95;;
50585;SDS011;36542;51.700;8.846;2023-08-30T11:11:45;4.40;;;3.90;;
50585;SDS011;36542;51.700;8.846;2023-08-30T11:14:11;4.88;;;3.47;;
50585;SDS011;36542;51.700;8.846;2023-08-30T11:16:38;4.82;;;3.53;;
50585;SDS011;36542;51.700;8.846;2023-08-30T11:19:04;5.18;;;3.50;;
50585;SDS011;36542;51.700;8.846;2023-08-30T11:21:32;5.38;;;4.10;;
50585;SDS011;36542;51.700;8.846;2023-08-30T11:24:01;4.97;;;4.40;;
50585;SDS011;36542;51.700;8.846;2023-08-30T11:26:28;6.40;;;4.55;;
50585;SDS011;36542;51.700;8.846;2023-08-30T11:28:54;6.97;;;5.07;;
50585;SDS011;36542;51.700;8.846;2023-08-30T11:31:21;5.88;;;5.05;;
50585;SDS011;36542;51.700;8.846;2023-08-30T11:33:54;4.65;;;3.95;;
50585;SDS011;36542;51.700;8.846;2023-08-30T11:36:21;5.40;;;4.32;;
50585;SDS011;36542;51.700;8.846;2023-08-30T11:38:51;6.10;;;5.25;;
50585;SDS011;36542;51.700;8.846;2023-08-30T11:41:20;10.80;;;5.40;;
50585;SDS011;36542;51.700;8.846;2023-08-30T11:43:50;5.40;;;4.90;;
50585;SDS011;36542;51.700;8.846;2023-08-30T11:46:19;6.32;;;4.65;;
50585;SDS011;36542;51.700;8.846;2023-08-30T11:48:47;5.93;;;4.78;;
50585;SDS011;36542;51.700;8.846;2023-08-30T11:51:14;7.57;;;5.30;;
50585;SDS011;36542;51.700;8.846;2023-08-30T11:53:41;5.43;;;4.72;;
50585;SDS011;36542;51.700;8.846;2023-08-30T11:56:07;8.90;;;4.70;;
50585;SDS011;36542;51.700;8.846;2023-08-30T11:58:33;7.10;;;5.38;;
50585;SDS011;36542;51.700;8.846;2023-08-30T12:00:59;7.20;;;4.57;;
50585;SDS011;36542;51.700;8.846;2023-08-30T12:03:31;6.20;;;5.07;;
50585;SDS011;36542;51.700;8.846;2023-08-30T12:05:57;5.53;;;4.95;;
50585;SDS011;36542;51.700;8.846;2023-08-30T12:08:28;7.30;;;5.05;;
50585;SDS011;36542;51.700;8.846;2023-08-30T12:10:56;5.30;;;4.80;;
50585;SDS011;36542;51.700;8.846;2023-08-30T12:13:26;5.55;;;4.90;;
50585;SDS011;36542;51.700;8.846;2023-08-30T12:15:53;5.22;;;3.85;;
50585;SDS011;36542;51.700;8.846;2023-08-30T12:18:23;6.95;;;4.35;;
50585;SDS011;36542;51.700;8.846;2023-08-30T12:20:59;4.72;;;4.25;;
50585;SDS011;36542;51.700;8.846;2023-08-30T12:23:29;5.10;;;4.43;;
50585;SDS011;36542;51.700;8.846;2023-08-30T12:28:32;5.75;;;4.57;;
50585;SDS011;36542;51.700;8.846;2023-08-30T12:30:59;6.95;;;4.65;;
50585;SDS011;36542;51.700;8.846;2023-08-30T12:33:26;5.15;;;4.65;;
50585;SDS011;36542;51.700;8.846;2023-08-30T12:35:52;5.30;;;4.40;;
50585;SDS011;36542;51.700;8.846;2023-08-30T12:38:19;5.75;;;4.40;;
50585;SDS011;36542;51.700;8.846;2023-08-30T12:40:45;7.53;;;4.50;;
50585;SDS011;36542;51.700;8.846;2023-08-30T12:43:12;6.00;;;5.30;;
50585;SDS011;36542;51.700;8.846;2023-08-30T12:45:39;5.57;;;4.90;;
50585;SDS011;36542;51.700;8.846;2023-08-30T12:48:05;7.20;;;4.93;;
50585;SDS011;36542;51.700;8.846;2023-08-30T12:50:32;5.50;;;4.95;;
50585;SDS011;36542;51.700;8.846;2023-08-30T12:52:57;8.05;;;5.43;;
50585;SDS011;36542;51.700;8.846;2023-08-30T12:55:23;5.43;;;4.18;;
50585;SDS011;36542;51.700;8.846;2023-08-30T12:57:48;7.43;;;5.65;;
50585;SDS011;36542;51.700;8.846;2023-08-30T13:00:14;6.32;;;4.93;;
50585;SDS011;36542;51.700;8.846;2023-08-30T13:02:39;5.53;;;4.60;;
50585;SDS011;36542;51.700;8.846;2023-08-30T13:05:05;8.13;;;5.13;;
50585;SDS011;36542;51.700;8.846;2023-08-30T13:07:31;5.93;;;5.13;;
50585;SDS011;36542;51.700;8.846;2023-08-30T13:09:57;8.38;;;5.70;;
50585;SDS011;36542;51.700;8.846;2023-08-30T13:12:22;7.05;;;5.40;;
50585;SDS011;36542;51.700;8.846;2023-08-30T13:14:48;6.30;;;5.70;;
50585;SDS011;36542;51.700;8.846;2023-08-30T13:17:13;4.82;;;4.38;;
50585;SDS011;36542;51.700;8.846;2023-08-30T13:19:39;6.18;;;4.60;;
50585;SDS011;36542;51.700;8.846;2023-08-30T13:22:05;5.90;;;5.13;;
50585;SDS011;36542;51.700;8.846;2023-08-30T13:24:30;5.90;;;5.30;;
50585;SDS011;36542;51.700;8.846;2023-08-30T13:26:57;6.20;;;5.00;;
50585;SDS011;36542;51.700;8.846;2023-08-30T13:29:23;7.07;;;4.43;;
50585;SDS011;36542;51.700;8.846;2023-08-30T13:31:48;6.50;;;4.77;;
50585;SDS011;36542;51.700;8.846;2023-08-30T13:34:14;4.30;;;3.90;;
50585;SDS011;36542;51.700;8.846;2023-08-30T13:36:39;5.17;;;4.13;;
50585;SDS011;36542;51.700;8.846;2023-08-30T13:39:05;7.32;;;4.20;;
50585;SDS011;36542;51.700;8.846;2023-08-30T13:41:31;5.97;;;4.25;;
50585;SDS011;36542;51.700;8.846;2023-08-30T13:43:56;9.13;;;4.15;;
50585;SDS011;36542;51.700;8.846;2023-08-30T13:46:22;6.32;;;5.13;;
50585;SDS011;36542;51.700;8.846;2023-08-30T13:48:48;6.20;;;5.60;;
50585;SDS011;36542;51.700;8.846;2023-08-30T13:51:14;8.90;;;6.72;;
50585;SDS011;36542;51.700;8.846;2023-08-30T13:53:45;8.43;;;6.63;;
50585;SDS011;36542;51.700;8.846;2023-08-30T13:56:11;8.47;;;6.80;;
50585;SDS011;36542;51.700;8.846;2023-08-30T13:58:36;7.83;;;7.03;;
50585;SDS011;36542;51.700;8.846;2023-08-30T14:01:02;9.77;;;7.47;;
50585;SDS011;36542;51.700;8.846;2023-08-30T14:03:27;8.87;;;7.53;;
50585;SDS011;36542;51.700;8.846;2023-08-30T14:05:53;10.53;;;8.20;;
50585;SDS011;36542;51.700;8.846;2023-08-30T14:08:18;10.07;;;8.47;;
50585;SDS011;36542;51.700;8.846;2023-08-30T14:10:44;10.93;;;8.53;;
50585;SDS011;36542;51.700;8.846;2023-08-30T14:13:09;12.13;;;9.00;;
50585;SDS011;36542;51.700;8.846;2023-08-30T14:15:35;9.30;;;8.40;;
50585;SDS011;36542;51.700;8.846;2023-08-30T14:18:00;11.27;;;8.53;;
50585;SDS011;36542;51.700;8.846;2023-08-30T14:20:27;10.97;;;8.93;;
50585;SDS011;36542;51.700;8.846;2023-08-30T14:22:53;11.33;;;9.00;;
50585;SDS011;36542;51.700;8.846;2023-08-30T14:25:18;10.87;;;9.57;;
50585;SDS011;36542;51.700;8.846;2023-08-30T14:27:44;10.43;;;9.33;;
50585;SDS011;36542;51.700;8.846;2023-08-30T14:30:10;10.13;;;9.20;;
50585;SDS011;36542;51.700;8.846;2023-08-30T14:32:35;16.87;;;10.17;;